メインページ
METAR-TAF:

METAR-TAF

空港 :

Swift Current, サスカチュワン州, カナダ

緯度: 50-17N, 経度: 107-41W, 海抜: 818m

現時点の気象観測

当レポートは32分前の04:00(UTC)に作成
南東の風 7kt
気温 -3°C
湿度 100%
気圧 1013 hPa
視程: 0.8km
(弱い) 着氷性, 雨, 着氷性の霧

METAR: CYYN 270400Z AUTO 14007KT 1/2SM -FZRA FZFG VV003 M03/M03 A2992 RMK ICG SLP173

時間: 22:32 (04:32 UTC)

予報

当レポートは2時間29分前の02:03(UTC)に作成
予報は27日の 02時(UTC)から 27日の 12時(UTC)まで有効
変向風 3kt
視程: 0.8km
高度200ftの
(弱い) 着氷性, 霧雨, 着氷性の霧
27日の 02時(UTC)から 27日の 10時(UTC)まで一時的に
視程: 4.8km
高度600ftの曇り
27日の 04時(UTC)から 27日の 06時(UTC)まで徐々に
南/南東の風 8kt
27日の 1000時(UTC)から
の風 10kt
視程: 1.6km
高度300ftの曇り
27日の 10時(UTC)から 27日の 12時(UTC)まで一時的に
視程: 9.7km
高度600ftの曇り
確率 40%
27日の 10時(UTC)から 27日の 12時(UTC)まで
視程: 0.8km
高度200ftの
着氷性の霧

TAF: CYYN 270203Z 2702/2712 VRB03KT 1/2SM -FZDZ FZFG VV002 TEMPO 2702/2710 3SM BR OVC006 BECMG 2704/2706 16008KT FM271000 18010KT 1SM BR OVC003 TEMPO 2710/2712 6SM BR OVC006 PROB40 2710/2712 1/2SM FZFG VV002 RMK FCST BASED ON AUTO OBS. NXT FCST BY 270600Z

4,000以上の空港の気象観測と天気予報(METAR報とTAF報)

利用可能な観測所は地図上に黄色い丸と赤い丸で示す。

丸の上にカーソルを重ねると観測所名を参照できる。

次にクリックすると気象観測と天気予報を参照できる。

マップの切り替え:黒色「×」印の緑ボタンをクリックして拡大、「-」印の緑ボタンをクリックして縮小、緑色の三角印をクリックして隣りの地図に切り替え


METAR-TAF: